Time;durP1;ratioP1;P1;durP2;ratioP2;P2;SDS_P1;SDS_P2;PMS_P1;PMS_P2;Temp;Humidity;BMP_temperature;BMP_pressure;BME280_temperature;BME280_humidity;BME280_pressure;Samples;Min_cycle;Max_cycle;Signal;HPM_P1;HPM_P2
2022/03/11 00:02:21;;;;;;;;;;;102.90;998.40;;;;;;5035912;28;20008;-59
2022/03/11 00:04:47;;;;;;;;;;;102.90;1024.00;;;;;;5035999;28;20428;-58
2022/03/11 00:07:12;;;;;;;;;;;102.90;998.40;;;;;;5035651;28;19913;-62
2022/03/11 00:09:38;;;;;;;;;;;102.80;1024.00;;;;;;5036408;28;19963;-61
2022/03/11 00:12:06;;;;;;;;;;;102.80;1024.00;;;;;;5035870;28;20386;-60
2022/03/11 00:14:31;;;;;;;;;;;102.80;1024.00;;;;;;5032884;28;19913;-60
2022/03/11 00:16:57;;;;;;;;;;;102.70;1024.00;;;;;;5035869;28;20243;-58
2022/03/11 00:19:22;;;;;;;;;;;102.70;1024.00;;;;;;5034836;28;19921;-60
2022/03/11 00:21:48;;;;;;;;;;;102.70;1024.00;;;;;;5034364;28;20279;-62
2022/03/11 00:24:14;;;;;;;;;;;102.70;1024.00;;;;;;5033769;28;19909;-59
2022/03/11 00:26:40;;;;;;;;;;;102.70;1024.00;;;;;;5035361;28;19913;-60
2022/03/11 00:29:05;;;;;;;;;;;102.70;1024.00;;;;;;5036145;28;19952;-61
2022/03/11 00:31:31;;;;;;;;;;;102.50;1024.00;;;;;;5036179;28;19913;-60
2022/03/11 00:33:58;;;;;;;;;;;102.60;1024.00;;;;;;5035592;28;19917;-61
2022/03/11 00:36:24;;;;;;;;;;;102.50;1049.60;;;;;;5035691;28;19917;-60
2022/03/11 00:38:50;;;;;;;;;;;102.50;1024.00;;;;;;5035548;28;19917;-63
2022/03/11 00:41:16;;;;;;;;;;;102.50;1024.00;;;;;;5035392;28;19917;-60
2022/03/11 00:43:42;;;;;;;;;;;102.50;1024.00;;;;;;5035566;28;19913;-61
2022/03/11 00:46:08;;;;;;;;;;;102.40;1024.00;;;;;;5035392;28;19986;-60
2022/03/11 00:48:33;;;;;;;;;;;102.40;1049.60;;;;;;5035686;28;19913;-60
2022/03/11 00:50:59;;;;;;;;;;;102.40;1049.60;;;;;;5035400;28;19909;-59
2022/03/11 00:53:25;;;;;;;;;;;77.70;1049.60;;;;;;5034638;28;19939;-59
2022/03/11 00:55:50;;;;;;;;;;;77.70;1049.60;;;;;;5035101;28;20566;-60
2022/03/11 00:58:16;;;;;;;;;;;77.60;1049.60;;;;;;5034039;28;19920;-60
2022/03/11 01:00:42;;;;;;;;;;;77.60;1049.60;;;;;;5034195;28;19921;-61
2022/03/11 01:03:08;;;;;;;;;;;77.60;1049.60;;;;;;5034675;28;20382;-65
2022/03/11 01:05:33;;;;;;;;;;;77.50;1049.60;;;;;;5035036;28;19924;-64
2022/03/11 01:07:59;;;;;;;;;;;103.10;1766.40;;;;;;5035257;28;19909;-62
2022/03/11 01:10:25;;;;;;;;;;;128.30;1561.60;;;;;;5034994;28;19909;-60
2022/03/11 01:12:51;;;;;;;;;;;128.20;1254.40;;;;;;5035392;28;19995;-62
2022/03/11 01:15:16;;;;;;;;;;;128.00;1152.00;;;;;;5035223;28;20377;-60
2022/03/11 01:17:42;;;;;;;;;;;103.20;1049.60;;;;;;5035185;28;19939;-59
2022/03/11 01:20:10;;;;;;;;;;;103.00;1049.60;;;;;;5034942;28;20017;-58
2022/03/11 01:22:35;;;;;;;;;;;102.90;1049.60;;;;;;5035282;28;19909;-58
2022/03/11 01:25:01;;;;;;;;;;;102.80;1049.60;;;;;;5034928;28;19909;-57
2022/03/11 01:27:27;;;;;;;;;;;102.70;1049.60;;;;;;5034870;28;19994;-60
2022/03/11 01:29:52;;;;;;;;;;;102.60;1024.00;;;;;;5034976;28;19983;-58
2022/03/11 01:32:18;;;;;;;;;;;102.60;1049.60;;;;;;5034227;28;20365;-58
2022/03/11 01:34:43;;;;;;;;;;;102.60;1024.00;;;;;;5034707;28;20338;-58
2022/03/11 01:37:09;;;;;;;;;;;102.50;1024.00;;;;;;5034743;28;19910;-60
2022/03/11 01:39:34;;;;;;;;;;;102.40;1049.60;;;;;;5034654;28;19917;-59
2022/03/11 01:42:00;;;;;;;;;;;102.40;1049.60;;;;;;5034941;28;19916;-60
2022/03/11 01:44:26;;;;;;;;;;;102.40;1049.60;;;;;;5034666;28;20266;-61
2022/03/11 01:46:52;;;;;;;;;;;77.70;1024.00;;;;;;5034779;28;19909;-59
2022/03/11 01:49:17;;;;;;;;;;;77.60;1049.60;;;;;;5034113;28;20317;-62
2022/03/11 01:51:43;;;;;;;;;;;77.50;1049.60;;;;;;5034697;28;19920;-62
2022/03/11 01:54:09;;;;;;;;;;;77.50;1049.60;;;;;;5034689;28;19909;-59
2022/03/11 01:56:36;;;;;;;;;;;77.50;1049.60;;;;;;5034487;28;19909;-59
2022/03/11 01:59:02;;;;;;;;;;;77.40;1049.60;;;;;;5034500;28;20405;-59
2022/03/11 02:01:27;;;;;;;;;;;77.40;1075.20;;;;;;5034339;28;19909;-61
2022/03/11 02:03:53;;;;;;;;;;;77.30;1075.20;;;;;;5034352;28;19909;-62
2022/03/11 02:06:19;;;;;;;;;;;77.30;1075.20;;;;;;5034323;28;19909;-59
2022/03/11 02:08:45;;;;;;;;;;;77.20;1075.20;;;;;;5034273;28;19909;-59
2022/03/11 02:11:11;;;;;;;;;;;77.30;1075.20;;;;;;5034491;28;19972;-59
2022/03/11 02:13:50;;;;;;;;;;;77.20;1100.80;;;;;;5033930;28;19909;-59
2022/03/11 02:16:17;;;;;;;;;;;77.10;1075.20;;;;;;5034355;28;19944;-60
2022/03/11 02:18:43;;;;;;;;;;;77.10;1075.20;;;;;;5034049;28;20381;-59
2022/03/11 02:21:09;;;;;;;;;;;77.00;1100.80;;;;;;5034377;28;19913;-59
2022/03/11 02:23:54;;;;;;;;;;;77.00;1075.20;;;;;;5034314;28;20378;-62
2022/03/11 02:26:21;;;;;;;;;;;77.00;1100.80;;;;;;5034057;28;19916;-59
2022/03/11 02:28:47;;;;;;;;;;;76.90;1126.40;;;;;;5034208;28;20271;-62
2022/03/11 02:31:12;;;;;;;;;;;77.00;1100.80;;;;;;5033868;28;19909;-59
2022/03/11 02:33:38;;;;;;;;;;;77.00;1126.40;;;;;;5034187;28;19963;-59
2022/03/11 02:36:04;;;;;;;;;;;77.00;1100.80;;;;;;5034083;28;19921;-62
2022/03/11 02:38:30;;;;;;;;;;;77.00;1100.80;;;;;;5033938;28;19913;-59
2022/03/11 02:40:56;;;;;;;;;;;76.90;1126.40;;;;;;5033604;28;19939;-59
2022/03/11 02:43:22;;;;;;;;;;;76.80;1100.80;;;;;;5034120;28;20259;-59
2022/03/11 02:45:48;;;;;;;;;;;76.90;1100.80;;;;;;5038041;28;19955;-61
2022/03/11 02:48:13;;;;;;;;;;;76.80;1126.40;;;;;;5037709;28;19913;-59
2022/03/11 02:50:39;;;;;;;;;;;76.80;1126.40;;;;;;5038033;28;20001;-61
2022/03/11 02:53:05;;;;;;;;;;;76.80;1100.80;;;;;;5037957;28;19916;-59
2022/03/11 02:55:30;;;;;;;;;;;76.80;1100.80;;;;;;5037675;28;20271;-58
2022/03/11 02:57:56;;;;;;;;;;;76.80;1126.40;;;;;;5038206;28;19909;-61
2022/03/11 03:00:22;;;;;;;;;;;52.10;1126.40;;;;;;5037616;28;20384;-60
2022/03/11 03:02:47;;;;;;;;;;;52.10;1126.40;;;;;;5037059;28;20351;-58
2022/03/11 03:05:13;;;;;;;;;;;52.10;1100.80;;;;;;5037703;28;19920;-62
2022/03/11 03:07:39;;;;;;;;;;;52.10;1126.40;;;;;;5037665;28;20389;-61
2022/03/11 03:10:05;;;;;;;;;;;52.10;1126.40;;;;;;5037548;28;19936;-61
2022/03/11 03:12:31;;;;;;;;;;;52.00;1126.40;;;;;;5037285;28;19944;-61
2022/03/11 03:14:56;;;;;;;;;;;52.00;1126.40;;;;;;5038050;28;19999;-59
2022/03/11 03:17:22;;;;;;;;;;;52.00;1126.40;;;;;;5037561;28;20385;-59
2022/03/11 03:19:48;;;;;;;;;;;51.90;1126.40;;;;;;5037427;28;20385;-59
2022/03/11 03:22:14;;;;;;;;;;;52.00;1126.40;;;;;;5037458;28;19914;-59
2022/03/11 03:24:40;;;;;;;;;;;51.90;1126.40;;;;;;5037190;28;19909;-60
2022/03/11 03:27:05;;;;;;;;;;;52.00;1126.40;;;;;;5037269;28;19909;-60
2022/03/11 03:29:31;;;;;;;;;;;51.90;1126.40;;;;;;5037225;28;20437;-60
2022/03/11 03:31:58;;;;;;;;;;;51.90;1126.40;;;;;;5037293;28;19956;-63
2022/03/11 03:34:27;;;;;;;;;;;51.90;1126.40;;;;;;5037242;28;20004;-60
2022/03/11 03:36:52;;;;;;;;;;;51.90;1126.40;;;;;;5036995;28;20409;-59
2022/03/11 03:39:18;;;;;;;;;;;51.90;1126.40;;;;;;5036705;28;19942;-59
2022/03/11 03:41:43;;;;;;;;;;;51.90;1126.40;;;;;;5037296;28;19913;-61
2022/03/11 03:44:09;;;;;;;;;;;51.90;1126.40;;;;;;5036991;28;20270;-59
2022/03/11 03:46:34;;;;;;;;;;;51.80;1126.40;;;;;;5036961;28;19913;-60
2022/03/11 03:49:00;;;;;;;;;;;51.80;1126.40;;;;;;5036746;28;19909;-60
2022/03/11 03:51:26;;;;;;;;;;;51.80;1126.40;;;;;;5036953;28;19917;-59
2022/03/11 03:53:51;;;;;;;;;;;51.80;1126.40;;;;;;5037015;28;19937;-59
2022/03/11 03:56:17;;;;;;;;;;;51.80;1126.40;;;;;;5036025;28;20428;-59
2022/03/11 03:58:42;;;;;;;;;;;51.80;1126.40;;;;;;5036633;28;19913;-59
2022/03/11 04:01:08;;;;;;;;;;;51.60;1152.00;;;;;;5036742;28;19949;-59
2022/03/11 04:03:35;;;;;;;;;;;51.60;1152.00;;;;;;5036409;28;19940;-59
2022/03/11 04:06:00;;;;;;;;;;;51.60;1152.00;;;;;;5036699;28;19909;-59
2022/03/11 04:08:27;;;;;;;;;;;51.50;1152.00;;;;;;5036648;28;20355;-59
2022/03/11 04:10:52;;;;;;;;;;;51.50;1152.00;;;;;;5036429;28;20339;-60
2022/03/11 04:13:18;;;;;;;;;;;51.50;1152.00;;;;;;5036397;28;19940;-59
2022/03/11 04:15:43;;;;;;;;;;;51.50;1152.00;;;;;;5036405;28;19917;-59
2022/03/11 04:18:09;;;;;;;;;;;51.50;1152.00;;;;;;5036486;28;19955;-59
2022/03/11 04:20:34;;;;;;;;;;;51.50;1152.00;;;;;;5036126;28;20343;-59
2022/03/11 04:23:00;;;;;;;;;;;51.50;1152.00;;;;;;5036336;28;19940;-58
2022/03/11 04:25:26;;;;;;;;;;;51.40;1152.00;;;;;;5036103;28;19909;-58
2022/03/11 04:27:51;;;;;;;;;;;51.40;1152.00;;;;;;5036003;28;20325;-59
2022/03/11 04:30:17;;;;;;;;;;;51.30;1177.60;;;;;;5036169;28;19916;-58
2022/03/11 04:32:43;;;;;;;;;;;51.40;1177.60;;;;;;5036065;28;20370;-58
2022/03/11 04:35:08;;;;;;;;;;;51.40;1177.60;;;;;;5036099;28;19909;-59
2022/03/11 04:37:34;;;;;;;;;;;51.30;1177.60;;;;;;5036006;28;20278;-59
2022/03/11 04:40:00;;;;;;;;;;;51.30;1177.60;;;;;;5035289;28;19918;-63
2022/03/11 04:42:25;;;;;;;;;;;51.30;1177.60;;;;;;5035920;28;19909;-59
2022/03/11 04:44:51;;;;;;;;;;;51.30;1177.60;;;;;;5035843;28;19910;-59
2022/03/11 04:47:16;;;;;;;;;;;51.30;1177.60;;;;;;5035793;28;19913;-59
2022/03/11 04:49:42;;;;;;;;;;;51.20;1177.60;;;;;;5035710;28;20015;-59
2022/03/11 04:52:07;;;;;;;;;;;51.20;1177.60;;;;;;5035737;28;19909;-59
2022/03/11 04:54:33;;;;;;;;;;;51.20;1177.60;;;;;;5035554;28;19919;-59
2022/03/11 04:56:59;;;;;;;;;;;51.20;1177.60;;;;;;5035636;28;19909;-59
2022/03/11 04:59:24;;;;;;;;;;;51.20;1177.60;;;;;;5035350;28;19920;-62
2022/03/11 05:01:50;;;;;;;;;;;51.20;1177.60;;;;;;5035210;28;19996;-59
2022/03/11 05:04:15;;;;;;;;;;;51.20;1177.60;;;;;;5035232;28;19913;-60
2022/03/11 05:06:41;;;;;;;;;;;51.20;1177.60;;;;;;5035474;28;19932;-58
2022/03/11 05:09:07;;;;;;;;;;;51.20;1177.60;;;;;;5035553;28;20414;-59
2022/03/11 05:11:33;;;;;;;;;;;51.20;1177.60;;;;;;5035491;28;19909;-58
2022/03/11 05:13:58;;;;;;;;;;;51.20;1177.60;;;;;;5035266;28;19909;-59
2022/03/11 05:16:24;;;;;;;;;;;51.20;1177.60;;;;;;5035347;28;19909;-58
2022/03/11 05:18:53;;;;;;;;;;;26.50;1152.00;;;;;;5034942;28;19982;-58
2022/03/11 05:21:19;;;;;;;;;;;51.20;1177.60;;;;;;5034891;28;19915;-59
2022/03/11 05:23:45;;;;;;;;;;;26.50;1152.00;;;;;;5035047;28;19941;-59
2022/03/11 05:26:24;;;;;;;;;;;26.40;1152.00;;;;;;5034875;28;19944;-59
2022/03/11 05:28:51;;;;;;;;;;;26.50;1177.60;;;;;;5035016;28;19909;-59
2022/03/11 05:31:17;;;;;;;;;;;26.40;1177.60;;;;;;5034949;28;20270;-59
2022/03/11 05:33:42;;;;;;;;;;;26.40;1177.60;;;;;;5034779;28;19959;-59
2022/03/11 05:36:08;;;;;;;;;;;26.50;1152.00;;;;;;5034982;28;19909;-58
2022/03/11 05:38:33;;;;;;;;;;;26.50;1152.00;;;;;;5035023;28;19939;-58
2022/03/11 05:40:59;;;;;;;;;;;26.50;1177.60;;;;;;5035028;28;19913;-58
2022/03/11 05:43:24;;;;;;;;;;;26.50;1177.60;;;;;;5034884;28;20363;-58
2022/03/11 05:45:50;;;;;;;;;;;26.50;1177.60;;;;;;5034664;28;19915;-62
2022/03/11 05:48:15;;;;;;;;;;;26.40;1177.60;;;;;;5034540;28;19971;-58
2022/03/11 05:50:41;;;;;;;;;;;26.50;1177.60;;;;;;5034539;28;19913;-59
2022/03/11 05:53:06;;;;;;;;;;;26.50;1177.60;;;;;;5034859;28;19909;-58
2022/03/11 05:55:32;;;;;;;;;;;26.50;1177.60;;;;;;5034417;28;19909;-58
2022/03/11 05:57:57;;;;;;;;;;;26.50;1177.60;;;;;;5034824;28;19935;-57
2022/03/11 06:00:23;;;;;;;;;;;26.50;1177.60;;;;;;5034491;28;20409;-58
2022/03/11 06:02:49;;;;;;;;;;;26.50;1152.00;;;;;;5034078;28;20378;-61
2022/03/11 06:05:15;;;;;;;;;;;26.50;1177.60;;;;;;5034376;28;19909;-59
2022/03/11 06:07:41;;;;;;;;;;;26.50;1177.60;;;;;;5034392;28;19999;-58
2022/03/11 06:10:07;;;;;;;;;;;26.50;1177.60;;;;;;5034208;28;20004;-57
2022/03/11 06:12:33;;;;;;;;;;;26.50;1177.60;;;;;;5034199;28;19944;-60
2022/03/11 06:14:58;;;;;;;;;;;51.20;1203.20;;;;;;5034353;28;19913;-61
2022/03/11 06:17:24;;;;;;;;;;;26.50;1177.60;;;;;;5034338;28;20258;-61
2022/03/11 06:19:49;;;;;;;;;;;51.20;1203.20;;;;;;5033403;28;19964;-61
2022/03/11 06:22:15;;;;;;;;;;;51.20;1177.60;;;;;;5034347;28;19909;-57
2022/03/11 06:24:41;;;;;;;;;;;51.20;1177.60;;;;;;5034291;28;19913;-58
2022/03/11 06:27:07;;;;;;;;;;;51.20;1203.20;;;;;;5034321;28;19910;-61
2022/03/11 06:29:33;;;;;;;;;;;51.30;1203.20;;;;;;5033752;28;19913;-60
2022/03/11 06:31:58;;;;;;;;;;;51.40;1203.20;;;;;;5034182;28;19910;-60
2022/03/11 06:34:24;;;;;;;;;;;51.30;1177.60;;;;;;5033925;28;19955;-58
2022/03/11 06:36:50;;;;;;;;;;;51.30;1177.60;;;;;;5034284;28;19913;-60
2022/03/11 06:39:15;;;;;;;;;;;51.30;1203.20;;;;;;5034123;28;19913;-58
2022/03/11 06:41:41;;;;;;;;;;;51.40;1203.20;;;;;;5034299;28;19909;-58
2022/03/11 06:44:07;;;;;;;;;;;51.40;1203.20;;;;;;5034097;28;19913;-58
2022/03/11 06:46:33;;;;;;;;;;;51.40;1203.20;;;;;;5033959;28;19909;-58
2022/03/11 06:48:58;;;;;;;;;;;51.40;1203.20;;;;;;5033925;28;19913;-58
2022/03/11 06:51:24;;;;;;;;;;;51.40;1203.20;;;;;;5033910;28;19913;-59
2022/03/11 06:53:49;;;;;;;;;;;51.50;1177.60;;;;;;5033768;28;19996;-58
2022/03/11 06:56:15;;;;;;;;;;;51.50;1177.60;;;;;;5033764;28;19909;-60
2022/03/11 06:58:41;;;;;;;;;;;51.60;1177.60;;;;;;5033957;28;19909;-58
2022/03/11 07:01:06;;;;;;;;;;;51.60;1177.60;;;;;;5033743;28;19913;-58
2022/03/11 07:03:32;;;;;;;;;;;51.70;1203.20;;;;;;5032600;28;19925;-59
2022/03/11 07:05:57;;;;;;;;;;;51.70;1177.60;;;;;;5032210;28;20298;-59
2022/03/11 07:08:23;;;;;;;;;;;51.70;1177.60;;;;;;5032660;28;19960;-61
2022/03/11 07:10:49;;;;;;;;;;;51.70;1177.60;;;;;;5032548;28;19916;-59
2022/03/11 07:13:14;;;;;;;;;;;51.80;1177.60;;;;;;5032269;28;19917;-58
2022/03/11 07:15:40;;;;;;;;;;;51.90;1177.60;;;;;;5032551;28;19908;-59
2022/03/11 07:18:05;;;;;;;;;;;51.90;1177.60;;;;;;5032288;28;19932;-60
2022/03/11 07:20:31;;;;;;;;;;;52.00;1152.00;;;;;;5032156;28;19924;-59
2022/03/11 07:22:56;;;;;;;;;;;52.10;1152.00;;;;;;5032298;28;20286;-59
2022/03/11 07:25:22;;;;;;;;;;;52.10;1152.00;;;;;;5032059;28;19944;-60
2022/03/11 07:27:49;;;;;;;;;;;76.80;1152.00;;;;;;5033229;28;19909;-59
2022/03/11 07:30:14;;;;;;;;;;;77.00;1152.00;;;;;;5065389;28;19913;-59
2022/03/11 07:32:40;;;;;;;;;;;77.00;1152.00;;;;;;5037174;28;19916;-59
2022/03/11 07:35:07;;;;;;;;;;;77.10;1152.00;;;;;;5035308;28;20313;-60
2022/03/11 07:37:32;;;;;;;;;;;77.20;1126.40;;;;;;5035761;28;19913;-59
2022/03/11 07:39:58;;;;;;;;;;;77.30;1126.40;;;;;;5035590;28;19917;-64
2022/03/11 07:42:24;;;;;;;;;;;77.50;1126.40;;;;;;5036282;28;19963;-65
2022/03/11 07:44:49;;;;;;;;;;;77.50;1100.80;;;;;;5036800;28;19909;-59
2022/03/11 07:47:15;;;;;;;;;;;77.60;1100.80;;;;;;5036849;28;19909;-59
2022/03/11 07:49:42;;;;;;;;;;;77.70;1100.80;;;;;;5036769;28;19945;-68
2022/03/11 07:52:14;;;;;;;;;;;102.80;1664.00;;;;;;5036790;28;19912;-59
2022/03/11 07:54:40;;;;;;;;;;;128.30;1536.00;;;;;;5035226;28;19913;-61
2022/03/11 07:57:06;;;;;;;;;;;128.20;1203.20;;;;;;5035249;28;20009;-59
2022/03/11 07:59:33;;;;;;;;;;;128.10;1126.40;;;;;;5035272;28;20356;-59
2022/03/11 08:01:59;;;;;;;;;;;128.20;1100.80;;;;;;5036651;28;19919;-59
2022/03/11 08:04:25;;;;;;;;;;;128.10;1075.20;;;;;;5035806;28;20056;-61
2022/03/11 08:06:51;;;;;;;;;;;128.20;1075.20;;;;;;5036448;28;19940;-59
2022/03/11 08:09:16;;;;;;;;;;;128.20;1049.60;;;;;;5036042;28;20346;-59
2022/03/11 08:11:42;;;;;;;;;;;128.20;1049.60;;;;;;5036798;28;19913;-59
2022/03/11 08:14:08;;;;;;;;;;;128.30;1049.60;;;;;;5036665;28;19952;-59
2022/03/11 08:16:33;;;;;;;;;;;128.30;1024.00;;;;;;5036789;28;19960;-59
2022/03/11 08:18:59;;;;;;;;;;;128.50;1024.00;;;;;;5036182;28;19917;-59
2022/03/11 08:21:25;;;;;;;;;;;128.50;1024.00;;;;;;5036479;28;20468;-60
2022/03/11 08:23:51;;;;;;;;;;;128.60;1024.00;;;;;;5036518;28;20314;-59
2022/03/11 08:26:17;;;;;;;;;;;128.70;998.40;;;;;;5036079;28;19909;-60
2022/03/11 08:28:43;;;;;;;;;;;128.80;998.40;;;;;;5036325;28;19913;-59
2022/03/11 08:31:08;;;;;;;;;;;128.90;998.40;;;;;;5036454;28;19964;-59
2022/03/11 08:33:37;;;;;;;;;;;128.90;998.40;;;;;;5036025;28;19955;-62
2022/03/11 08:36:03;;;;;;;;;;;153.60;972.80;;;;;;5036088;28;19909;-59
2022/03/11 08:38:28;;;;;;;;;;;153.70;972.80;;;;;;5036100;28;19951;-62
2022/03/11 08:40:54;;;;;;;;;;;153.80;972.80;;;;;;5035929;28;20271;-59
2022/03/11 08:43:22;;;;;;;;;;;153.80;947.20;;;;;;5036056;28;19916;-59
2022/03/11 08:45:47;;;;;;;;;;;153.90;947.20;;;;;;5035945;28;20039;-62
2022/03/11 08:48:13;;;;;;;;;;;154.00;921.60;;;;;;5034421;28;19941;-59
2022/03/11 08:50:38;;;;;;;;;;;154.10;947.20;;;;;;5035564;28;19935;-59
2022/03/11 08:53:04;;;;;;;;;;;154.20;947.20;;;;;;5035726;28;19916;-59
2022/03/11 08:55:30;;;;;;;;;;;154.20;921.60;;;;;;5035653;28;20018;-59
2022/03/11 08:57:55;;;;;;;;;;;154.30;921.60;;;;;;5035665;28;20374;-59
2022/03/11 09:00:22;;;;;;;;;;;154.40;921.60;;;;;;5035576;28;19917;-59
2022/03/11 09:02:48;;;;;;;;;;;154.50;921.60;;;;;;5035428;28;20367;-62
2022/03/11 09:05:15;;;;;;;;;;;179.20;921.60;;;;;;5035393;28;20390;-59
2022/03/11 09:07:40;;;;;;;;;;;179.30;921.60;;;;;;5035491;28;20414;-59
2022/03/11 09:10:07;;;;;;;;;;;179.40;921.60;;;;;;5035627;28;19913;-62
2022/03/11 09:12:33;;;;;;;;;;;179.40;896.00;;;;;;5035187;28;19909;-59
2022/03/11 09:14:58;;;;;;;;;;;179.40;896.00;;;;;;5035464;28;19916;-59
2022/03/11 09:17:24;;;;;;;;;;;179.50;896.00;;;;;;5035247;28;19911;-59
2022/03/11 09:19:50;;;;;;;;;;;179.60;870.40;;;;;;5034816;28;19921;-59
2022/03/11 09:22:17;;;;;;;;;;;179.60;870.40;;;;;;5035257;28;19939;-59
2022/03/11 09:24:44;;;;;;;;;;;179.70;870.40;;;;;;5035069;28;19913;-59
2022/03/11 09:27:11;;;;;;;;;;;179.70;870.40;;;;;;5035125;28;19909;-59
2022/03/11 09:29:37;;;;;;;;;;;179.70;844.80;;;;;;5035079;28;19931;-59
2022/03/11 09:32:03;;;;;;;;;;;179.80;844.80;;;;;;5034982;28;20366;-60
2022/03/11 09:34:29;;;;;;;;;;;179.80;819.20;;;;;;5035001;28;20317;-62
2022/03/11 09:36:55;;;;;;;;;;;179.90;844.80;;;;;;5034898;28;19909;-61
2022/03/11 09:39:21;;;;;;;;;;;180.00;819.20;;;;;;5034805;28;19960;-59
2022/03/11 09:41:47;;;;;;;;;;;180.00;819.20;;;;;;5034580;28;19916;-59
2022/03/11 09:44:13;;;;;;;;;;;180.10;819.20;;;;;;5034591;28;19909;-59
2022/03/11 09:46:40;;;;;;;;;;;204.80;819.20;;;;;;5034860;28;20035;-62
2022/03/11 09:49:05;;;;;;;;;;;204.80;819.20;;;;;;5034477;28;19909;-62
2022/03/11 09:51:32;;;;;;;;;;;204.90;793.60;;;;;;5034663;28;19932;-59
2022/03/11 09:53:58;;;;;;;;;;;204.90;793.60;;;;;;5034245;28;19916;-59
2022/03/11 09:56:24;;;;;;;;;;;204.90;768.00;;;;;;5034307;28;19913;-62
2022/03/11 09:58:50;;;;;;;;;;;205.00;793.60;;;;;;5034736;28;20043;-59
2022/03/11 10:01:15;;;;;;;;;;;205.00;793.60;;;;;;5035163;28;19966;-59
2022/03/11 10:03:41;;;;;;;;;;;205.10;793.60;;;;;;5034073;28;20012;-62
2022/03/11 10:06:06;;;;;;;;;;;205.20;793.60;;;;;;5034560;28;19909;-59
2022/03/11 10:08:39;;;;;;;;;;;205.20;793.60;;;;;;5034421;28;20440;-59
2022/03/11 10:11:24;;;;;;;;;;;205.20;768.00;;;;;;5034271;28;19917;-59
2022/03/11 10:13:51;;;;;;;;;;;205.20;768.00;;;;;;5034409;28;19970;-61
2022/03/11 10:16:17;;;;;;;;;;;205.20;768.00;;;;;;5034673;28;20339;-59
2022/03/11 10:18:51;;;;;;;;;;;205.30;768.00;;;;;;5034033;28;20434;-60
2022/03/11 10:21:17;;;;;;;;;;;205.30;742.40;;;;;;5034286;28;20004;-59
2022/03/11 10:23:49;;;;;;;;;;;205.30;742.40;;;;;;5034143;28;19948;-59
2022/03/11 10:26:29;;;;;;;;;;;205.40;742.40;;;;;;5034109;28;19944;-59
2022/03/11 10:28:58;;;;;;;;;;;205.40;742.40;;;;;;5033915;28;20362;-62
2022/03/11 10:31:30;;;;;;;;;;;205.50;716.80;;;;;;5034141;28;19920;-62
2022/03/11 10:34:15;;;;;;;;;;;205.50;716.80;;;;;;5033470;28;19937;-59
2022/03/11 10:36:47;;;;;;;;;;;205.50;716.80;;;;;;5034219;28;20331;-59
2022/03/11 10:39:16;;;;;;;;;;;205.60;691.20;;;;;;5034022;28;19913;-59
2022/03/11 10:41:42;;;;;;;;;;;205.60;691.20;;;;;;5034077;28;19913;-60
2022/03/11 10:44:09;;;;;;;;;;;205.70;665.60;;;;;;5033818;28;20350;-59
2022/03/11 10:46:35;;;;;;;;;;;205.70;691.20;;;;;;5034049;28;20792;-59
2022/03/11 10:49:01;;;;;;;;;;;205.70;665.60;;;;;;5032523;28;19909;-60
2022/03/11 10:51:26;;;;;;;;;;;230.40;665.60;;;;;;5033519;28;19916;-62
2022/03/11 10:53:52;;;;;;;;;;;230.40;691.20;;;;;;5034054;28;19909;-59
2022/03/11 10:56:29;;;;;;;;;;;230.50;691.20;;;;;;5034009;28;19910;-59
2022/03/11 10:58:55;;;;;;;;;;;230.50;665.60;;;;;;5033849;28;19920;-62
2022/03/11 11:01:40;;;;;;;;;;;230.50;691.20;;;;;;5033965;28;19920;-59
2022/03/11 11:04:07;;;;;;;;;;;230.50;665.60;;;;;;5033735;28;20000;-59
2022/03/11 11:06:33;;;;;;;;;;;230.60;665.60;;;;;;5037352;28;19951;-59
2022/03/11 11:08:59;;;;;;;;;;;230.60;665.60;;;;;;5037793;28;19909;-59
2022/03/11 11:11:25;;;;;;;;;;;230.60;665.60;;;;;;5037631;28;19910;-59
2022/03/11 11:13:51;;;;;;;;;;;230.70;665.60;;;;;;5037580;28;19944;-59
2022/03/11 11:16:18;;;;;;;;;;;230.70;665.60;;;;;;5037687;28;19910;-59
2022/03/11 11:18:46;;;;;;;;;;;230.70;665.60;;;;;;5037506;28;20389;-58
2022/03/11 11:21:12;;;;;;;;;;;230.70;640.00;;;;;;5037577;28;19995;-60
2022/03/11 11:23:38;;;;;;;;;;;230.70;640.00;;;;;;5037507;28;20325;-62
2022/03/11 11:26:04;;;;;;;;;;;230.70;640.00;;;;;;5037369;28;19913;-59
2022/03/11 11:28:30;;;;;;;;;;;230.70;640.00;;;;;;5037238;28;19909;-59
2022/03/11 11:30:56;;;;;;;;;;;230.70;640.00;;;;;;5037109;28;19909;-59
2022/03/11 11:33:22;;;;;;;;;;;230.70;640.00;;;;;;5037308;28;19979;-59
2022/03/11 11:35:54;;;;;;;;;;;230.70;640.00;;;;;;5037282;28;20347;-61
2022/03/11 11:38:34;;;;;;;;;;;230.80;614.40;;;;;;5037299;28;19916;-61
2022/03/11 11:41:00;;;;;;;;;;;230.80;819.20;;;;;;5037060;28;20321;-59
2022/03/11 11:43:27;;;;;;;;;;;230.80;614.40;;;;;;5035715;28;19913;-59
2022/03/11 11:46:02;;;;;;;;;;;230.70;614.40;;;;;;5032737;28;19953;-60
2022/03/11 11:50:59;;;;;;;;;;;230.70;588.80;;;;;;5035526;28;19913;-64
2022/03/11 11:53:34;;;;;;;;;;;230.60;614.40;;;;;;5035035;28;19920;-60
2022/03/11 11:56:00;;;;;;;;;;;230.60;614.40;;;;;;5033117;28;19913;-61
2022/03/11 11:58:26;;;;;;;;;;;230.70;614.40;;;;;;5035509;28;19977;-61
2022/03/11 12:00:55;;;;;;;;;;;230.70;588.80;;;;;;5035145;28;19932;-61
2022/03/11 12:03:41;;;;;;;;;;;230.70;588.80;;;;;;5035061;28;20485;-61
2022/03/11 12:06:07;;;;;;;;;;;230.60;563.20;;;;;;5033645;28;19909;-58
2022/03/11 12:08:39;;;;;;;;;;;230.60;588.80;;;;;;5035343;28;20266;-58
2022/03/11 12:11:05;;;;;;;;;;;230.70;588.80;;;;;;5034985;28;19913;-58
2022/03/11 12:13:31;;;;;;;;;;;230.60;588.80;;;;;;5035238;28;19924;-60
2022/03/11 12:15:56;;;;;;;;;;;230.60;563.20;;;;;;5032143;28;20189;-60
2022/03/11 12:18:35;;;;;;;;;;;230.70;563.20;;;;;;5034372;28;19932;-58
2022/03/11 12:21:01;;;;;;;;;;;230.70;588.80;;;;;;5032660;28;19928;-61
2022/03/11 12:23:30;;;;;;;;;;;230.70;588.80;;;;;;5034784;28;19910;-59
2022/03/11 12:26:00;;;;;;;;;;;230.70;588.80;;;;;;5034875;28;19914;-58
2022/03/11 12:28:33;;;;;;;;;;;230.70;588.80;;;;;;5035053;28;20299;-64
2022/03/11 12:31:03;;;;;;;;;;;230.90;1049.60;;;;;;5031853;28;19913;-64
2022/03/11 12:33:42;;;;;;;;;;;256.30;1203.20;;;;;;5034367;28;19909;-61
2022/03/11 12:36:18;;;;;;;;;;;256.60;742.40;;;;;;5034508;28;19921;-60
2022/03/11 12:38:44;;;;;;;;;;;256.50;614.40;;;;;;5034731;28;19913;-59
2022/03/11 12:41:12;;;;;;;;;;;256.30;588.80;;;;;;5034521;28;19963;-61
2022/03/11 12:43:38;;;;;;;;;;;256.20;563.20;;;;;;5034841;28;19982;-61
2022/03/11 12:46:05;;;;;;;;;;;256.10;563.20;;;;;;5034441;28;19913;-59
2022/03/11 12:48:33;;;;;;;;;;;231.30;563.20;;;;;;5034618;28;19909;-60
2022/03/11 12:50:59;;;;;;;;;;;231.30;563.20;;;;;;5034518;28;19999;-59
2022/03/11 12:53:25;;;;;;;;;;;231.20;563.20;;;;;;5034289;28;19916;-58
2022/03/11 12:55:51;;;;;;;;;;;231.10;563.20;;;;;;5034520;28;19909;-59
2022/03/11 12:58:28;;;;;;;;;;;231.00;563.20;;;;;;5034381;28;19913;-60
2022/03/11 13:00:55;;;;;;;;;;;231.00;563.20;;;;;;5031375;28;20359;-61
2022/03/11 13:03:25;;;;;;;;;;;231.00;563.20;;;;;;5034011;28;20271;-61
2022/03/11 13:05:50;;;;;;;;;;;231.00;563.20;;;;;;5033401;28;19940;-61
2022/03/11 13:08:17;;;;;;;;;;;231.00;563.20;;;;;;5031696;28;19909;-62
2022/03/11 13:10:44;;;;;;;;;;;231.00;563.20;;;;;;5034063;28;20092;-68
2022/03/11 13:13:11;;;;;;;;;;;231.00;588.80;;;;;;5034384;28;20426;-61
2022/03/11 13:15:37;;;;;;;;;;;231.00;588.80;;;;;;5034209;28;19963;-64
2022/03/11 13:18:07;;;;;;;;;;;231.00;588.80;;;;;;5034182;28;19952;-65
2022/03/11 13:20:41;;;;;;;;;;;231.00;588.80;;;;;;5035187;28;20016;-61
2022/03/11 13:23:20;;;;;;;;;;;231.00;563.20;;;;;;5035171;28;20001;-65
2022/03/11 13:25:53;;;;;;;;;;;231.00;563.20;;;;;;5033659;28;19909;-65
2022/03/11 13:28:26;;;;;;;;;;;231.00;563.20;;;;;;5034099;28;19963;-66
2022/03/11 13:30:53;;;;;;;;;;;231.00;563.20;;;;;;5035306;28;19909;-66
2022/03/11 13:33:23;;;;;;;;;;;231.00;563.20;;;;;;5034846;28;20261;-65
2022/03/11 13:35:50;;;;;;;;;;;230.90;563.20;;;;;;5035287;28;19963;-65
2022/03/11 13:38:34;;;;;;;;;;;230.90;563.20;;;;;;5034700;28;19944;-65
2022/03/11 13:40:59;;;;;;;;;;;230.90;563.20;;;;;;5034678;28;19921;-65
2022/03/11 13:43:25;;;;;;;;;;;230.90;563.20;;;;;;5034850;28;19913;-63
2022/03/11 13:45:54;;;;;;;;;;;230.90;563.20;;;;;;5034795;28;20398;-65
2022/03/11 13:48:26;;;;;;;;;;;231.00;563.20;;;;;;5034652;28;19913;-64
2022/03/11 13:50:58;;;;;;;;;;;231.00;563.20;;;;;;5034563;28;19917;-65
2022/03/11 13:53:27;;;;;;;;;;;231.00;563.20;;;;;;5033326;28;19924;-65